createdAt,value
2018-08-03T00:00:10.689Z,8.63
2018-08-03T00:02:39.962Z,8.75
2018-08-03T00:05:09.014Z,9.88
2018-08-03T00:07:38.201Z,10.10
2018-08-03T00:10:08.274Z,9.58
2018-08-03T00:12:37.469Z,9.85
2018-08-03T00:15:07.554Z,9.48
2018-08-03T00:17:36.786Z,10.05
2018-08-03T00:20:06.773Z,9.93
2018-08-03T00:22:36.126Z,9.85
2018-08-03T00:25:08.600Z,8.83
2018-08-03T00:27:37.768Z,10.00
2018-08-03T00:30:07.549Z,10.20
2018-08-03T00:32:36.649Z,10.63
2018-08-03T00:35:05.708Z,9.93
2018-08-03T00:37:34.809Z,10.10
2018-08-03T00:40:03.893Z,12.18
2018-08-03T00:42:33.045Z,13.50
2018-08-03T00:45:02.062Z,16.65
2018-08-03T00:47:31.087Z,17.25
2018-08-03T00:50:00.171Z,17.32
2018-08-03T00:52:29.267Z,17.07
2018-08-03T00:54:58.542Z,16.93
2018-08-03T00:57:27.552Z,17.43
2018-08-03T00:59:56.580Z,18.73
2018-08-03T01:02:25.693Z,17.63
2018-08-03T01:04:54.720Z,19.17
2018-08-03T01:07:23.845Z,19.80
2018-08-03T01:09:53.120Z,17.60
2018-08-03T01:12:22.762Z,14.70
2018-08-03T01:14:51.817Z,12.13
2018-08-03T01:17:20.841Z,12.30
2018-08-03T01:19:49.872Z,12.40
2018-08-03T01:22:18.966Z,14.17
2018-08-03T01:24:47.994Z,15.00
2018-08-03T01:27:17.003Z,16.33
2018-08-03T01:29:46.045Z,18.70
2018-08-03T01:32:15.056Z,20.37
2018-08-03T01:34:44.119Z,19.43
2018-08-03T01:37:13.285Z,19.53
2018-08-03T01:39:42.449Z,19.07
2018-08-03T01:42:11.573Z,18.07
2018-08-03T01:44:40.556Z,18.87
2018-08-03T01:47:09.688Z,18.57
2018-08-03T01:49:38.784Z,18.90
2018-08-03T01:52:07.844Z,20.07
2018-08-03T01:54:36.900Z,17.83
2018-08-03T01:57:05.993Z,21.33
2018-08-03T01:59:34.995Z,19.00
2018-08-03T02:02:04.181Z,19.20
2018-08-03T02:04:33.191Z,16.80
2018-08-03T02:07:02.257Z,18.63
2018-08-03T02:09:31.260Z,18.73
2018-08-03T02:12:00.327Z,18.07
2018-08-03T02:14:29.406Z,18.27
2018-08-03T02:16:58.461Z,20.30
2018-08-03T02:19:27.586Z,19.73
2018-08-03T02:21:56.748Z,19.17
2018-08-03T02:24:32.157Z,19.47
2018-08-03T02:27:01.181Z,20.47
2018-08-03T02:29:30.262Z,19.93
2018-08-03T02:31:59.275Z,20.67
2018-08-03T02:34:29.218Z,21.03
2018-08-03T02:36:58.368Z,21.10
2018-08-03T02:39:27.365Z,20.87
2018-08-03T02:41:56.417Z,19.27
2018-08-03T02:44:25.497Z,19.40
2018-08-03T02:46:54.640Z,18.50
2018-08-03T02:49:23.679Z,19.03
2018-08-03T02:51:52.757Z,18.90
2018-08-03T02:54:21.745Z,20.80
2018-08-03T02:56:50.767Z,22.13
2018-08-03T02:59:20.448Z,21.07
2018-08-03T03:01:49.571Z,20.67
2018-08-03T03:04:18.573Z,21.43
2018-08-03T03:06:47.680Z,19.57
2018-08-03T03:09:16.693Z,22.03
2018-08-03T03:11:45.706Z,21.50
2018-08-03T03:14:21.417Z,23.40
2018-08-03T03:16:50.518Z,23.53
2018-08-03T03:19:19.540Z,23.93
2018-08-03T03:21:48.608Z,24.13
2018-08-03T03:24:17.605Z,22.60
2018-08-03T03:26:46.689Z,26.20
2018-08-03T03:29:15.746Z,25.10
2018-08-03T03:31:44.789Z,24.27
2018-08-03T03:34:13.840Z,22.67
2018-08-03T03:36:42.881Z,26.63
2018-08-03T03:39:13.817Z,24.80
2018-08-03T03:41:43.149Z,24.97
2018-08-03T03:44:12.273Z,22.70
2018-08-03T03:46:41.301Z,23.30
2018-08-03T03:49:10.314Z,23.77
2018-08-03T03:51:39.363Z,23.50
2018-08-03T03:54:08.454Z,23.43
2018-08-03T03:56:37.489Z,23.50
2018-08-03T03:59:06.518Z,22.37
2018-08-03T04:01:35.585Z,24.13
2018-08-03T04:04:04.732Z,23.20
2018-08-03T04:06:33.826Z,24.03
2018-08-03T04:09:02.904Z,26.43
2018-08-03T04:11:31.896Z,25.93
2018-08-03T04:14:00.927Z,26.57
2018-08-03T04:16:29.957Z,24.63
2018-08-03T04:18:58.983Z,25.70
2018-08-03T04:21:27.989Z,24.77
2018-08-03T04:23:57.107Z,25.10
2018-08-03T04:26:26.105Z,27.07
2018-08-03T04:28:55.130Z,26.77
2018-08-03T04:31:24.165Z,27.80
2018-08-03T04:33:59.465Z,25.23
2018-08-03T04:36:28.459Z,26.50
2018-08-03T04:38:57.593Z,23.70
2018-08-03T04:41:26.523Z,25.30
2018-08-03T04:43:55.556Z,21.60
2018-08-03T04:46:24.648Z,21.23
2018-08-03T04:48:54.158Z,21.73
2018-08-03T04:51:23.149Z,19.20
2018-08-03T04:53:52.285Z,16.63
2018-08-03T04:56:21.342Z,18.33
2018-08-03T04:58:50.560Z,19.57
2018-08-03T05:01:19.546Z,18.40
2018-08-03T05:03:48.591Z,17.57
2018-08-03T05:06:17.722Z,18.32
2018-08-03T05:08:46.845Z,17.87
2018-08-03T05:11:15.849Z,17.20
2018-08-03T05:13:44.945Z,16.87
2018-08-03T05:16:14.033Z,17.37
2018-08-03T05:18:43.137Z,15.95
2018-08-03T05:21:12.185Z,13.78
2018-08-03T05:23:41.224Z,12.75
2018-08-03T05:26:10.387Z,11.73
2018-08-03T05:28:39.404Z,11.55
2018-08-03T05:31:09.166Z,11.35
2018-08-03T05:33:38.316Z,12.40
2018-08-03T05:36:07.604Z,12.30
2018-08-03T05:38:36.489Z,14.10
2018-08-03T05:41:05.558Z,14.60
2018-08-03T05:43:34.698Z,16.70
2018-08-03T05:46:03.779Z,18.17
2018-08-03T05:48:33.125Z,16.45
2018-08-03T05:51:02.142Z,16.07
2018-08-03T05:53:31.457Z,16.25
2018-08-03T05:56:00.642Z,16.00
2018-08-03T05:58:29.664Z,16.50
2018-08-03T06:00:58.802Z,15.58
2018-08-03T06:03:27.831Z,15.08
2018-08-03T06:05:57.200Z,16.70
2018-08-03T06:08:26.400Z,16.42
2018-08-03T06:10:55.399Z,15.48
2018-08-03T06:13:24.554Z,15.85
2018-08-03T06:15:53.605Z,15.65
2018-08-03T06:18:22.661Z,15.98
2018-08-03T06:20:51.691Z,15.00
2018-08-03T06:23:20.737Z,14.45
2018-08-03T06:25:49.785Z,15.08
2018-08-03T06:28:18.914Z,14.98
2018-08-03T06:30:47.905Z,15.65
2018-08-03T06:33:16.984Z,15.53
2018-08-03T06:35:46.229Z,14.70
2018-08-03T06:38:15.326Z,9.58
2018-08-03T06:40:44.345Z,9.30
2018-08-03T06:43:13.382Z,8.45
2018-08-03T06:45:42.518Z,7.33
2018-08-03T06:48:11.549Z,6.58
2018-08-03T06:50:40.633Z,6.65
2018-08-03T06:53:09.757Z,7.03
2018-08-03T06:55:38.812Z,7.33
2018-08-03T06:58:08.027Z,7.10
2018-08-03T07:00:37.105Z,6.47
2018-08-03T07:03:06.258Z,6.95
2018-08-03T07:05:35.286Z,7.45
2018-08-03T07:08:04.322Z,6.03
2018-08-03T07:10:33.406Z,5.90
2018-08-03T07:13:02.513Z,5.95
2018-08-03T07:15:31.586Z,6.47
2018-08-03T07:18:00.693Z,6.28
2018-08-03T07:20:30.005Z,6.30
2018-08-03T07:22:58.988Z,6.25
2018-08-03T07:25:28.166Z,5.92
2018-08-03T07:27:57.281Z,6.25
2018-08-03T07:30:26.411Z,5.85
2018-08-03T07:32:55.477Z,5.78
2018-08-03T07:35:24.450Z,6.28
2018-08-03T07:37:53.560Z,6.35
2018-08-03T07:40:22.630Z,6.53
2018-08-03T07:42:51.786Z,6.50
2018-08-03T07:45:20.830Z,6.35
2018-08-03T07:47:49.866Z,7.20
2018-08-03T07:50:18.893Z,7.35
2018-08-03T07:52:48.037Z,7.25
2018-08-03T07:55:17.141Z,7.30
2018-08-03T07:57:46.149Z,6.70
2018-08-03T08:00:15.137Z,7.12
2018-08-03T08:02:44.197Z,6.50
2018-08-03T08:05:13.169Z,6.87
2018-08-03T08:07:42.173Z,6.72
2018-08-03T08:10:11.256Z,6.47
2018-08-03T08:12:40.409Z,6.40
2018-08-03T08:15:09.453Z,7.15
2018-08-03T08:17:38.707Z,7.20
2018-08-03T08:20:07.732Z,6.80
2018-08-03T08:22:36.985Z,6.33
2018-08-03T08:25:06.076Z,6.60
2018-08-03T08:27:35.154Z,7.55
2018-08-03T08:30:04.360Z,7.03
2018-08-03T08:32:33.397Z,6.45
2018-08-03T08:35:02.425Z,6.20
2018-08-03T08:37:31.636Z,7.03
2018-08-03T08:40:00.687Z,6.72
2018-08-03T08:42:29.832Z,6.00
2018-08-03T08:44:58.833Z,6.90
2018-08-03T08:47:28.721Z,6.10
2018-08-03T08:49:57.822Z,5.60
2018-08-03T08:52:26.817Z,5.80
2018-08-03T08:54:56.210Z,5.45
2018-08-03T08:57:25.210Z,5.65
2018-08-03T08:59:54.249Z,6.55
2018-08-03T09:02:23.371Z,5.37
2018-08-03T09:04:52.684Z,5.40
2018-08-03T09:07:21.840Z,5.90
2018-08-03T09:09:51.001Z,5.60
2018-08-03T09:12:19.980Z,5.60
2018-08-03T09:14:49.189Z,6.20
2018-08-03T09:17:18.254Z,5.30
2018-08-03T09:19:47.385Z,5.30
2018-08-03T09:22:16.537Z,5.20
2018-08-03T09:24:45.660Z,5.60
2018-08-03T09:27:14.681Z,5.83
2018-08-03T09:29:43.724Z,5.72
2018-08-03T09:32:12.742Z,6.40
2018-08-03T09:34:41.753Z,5.35
2018-08-03T09:37:10.738Z,5.00
2018-08-03T09:39:39.809Z,4.78
2018-08-03T09:42:08.889Z,5.60
2018-08-03T09:44:37.919Z,5.00
2018-08-03T09:47:07.077Z,4.50
2018-08-03T09:49:36.209Z,4.87
2018-08-03T09:52:05.286Z,4.80
2018-08-03T09:54:34.412Z,4.60
2018-08-03T09:57:03.706Z,5.08
2018-08-03T09:59:32.722Z,5.17
2018-08-03T10:02:01.869Z,4.58
2018-08-03T10:04:30.940Z,5.00
2018-08-03T10:06:59.943Z,5.03
2018-08-03T10:09:28.989Z,4.90
2018-08-03T10:11:58.044Z,4.95
2018-08-03T10:14:27.146Z,5.45
2018-08-03T10:16:56.216Z,4.87
2018-08-03T10:19:25.245Z,5.12
2018-08-03T10:21:54.231Z,5.10
2018-08-03T10:24:23.330Z,5.08
2018-08-03T10:26:52.341Z,5.03
2018-08-03T10:29:21.396Z,4.60
2018-08-03T10:31:50.562Z,4.70
2018-08-03T10:34:19.610Z,5.58
2018-08-03T10:36:48.674Z,4.90
2018-08-03T10:39:17.653Z,5.62
2018-08-03T10:41:46.706Z,5.83
2018-08-03T10:44:15.779Z,5.75
2018-08-03T10:46:44.863Z,5.37
2018-08-03T10:49:13.938Z,5.78
2018-08-03T10:51:43.257Z,6.35
2018-08-03T10:54:12.378Z,5.60
2018-08-03T10:56:41.481Z,5.75
2018-08-03T10:59:10.522Z,6.00
2018-08-03T11:01:39.677Z,6.33
2018-08-03T11:04:08.706Z,5.95
2018-08-03T11:06:37.886Z,6.20
2018-08-03T11:09:08.374Z,5.90
2018-08-03T11:11:37.681Z,6.10
2018-08-03T11:14:06.882Z,6.40
2018-08-03T11:16:36.443Z,6.30
2018-08-03T11:19:05.644Z,6.20
2018-08-03T11:21:34.694Z,6.22
2018-08-03T11:24:03.892Z,6.35
2018-08-03T11:26:33.139Z,6.30
2018-08-03T11:29:02.334Z,5.95
2018-08-03T11:31:31.635Z,6.55
2018-08-03T11:34:00.741Z,6.58
2018-08-03T11:36:29.997Z,6.58
2018-08-03T11:38:59.051Z,6.80
2018-08-03T11:41:30.298Z,6.67
2018-08-03T11:43:59.403Z,6.83
2018-08-03T11:46:28.401Z,6.53
2018-08-03T11:48:57.656Z,6.72
2018-08-03T11:51:26.850Z,6.58
2018-08-03T11:53:56.110Z,6.53
2018-08-03T11:56:25.216Z,6.35
2018-08-03T11:58:54.253Z,6.33
2018-08-03T12:01:23.258Z,6.65
2018-08-03T12:03:52.368Z,6.60
2018-08-03T12:06:21.603Z,6.72
2018-08-03T12:08:50.825Z,6.15
2018-08-03T12:11:19.987Z,6.55
2018-08-03T12:13:49.150Z,7.08
2018-08-03T12:16:18.214Z,6.70
2018-08-03T12:18:47.307Z,6.75
2018-08-03T12:21:16.434Z,6.97
2018-08-03T12:23:45.515Z,7.30
2018-08-03T12:26:14.583Z,7.17
2018-08-03T12:28:43.554Z,6.97
2018-08-03T12:31:12.605Z,6.85
2018-08-03T12:33:41.649Z,6.80
2018-08-03T12:36:10.810Z,7.30
2018-08-03T12:38:39.881Z,7.12
2018-08-03T12:41:08.958Z,6.78
2018-08-03T12:43:37.963Z,7.83
2018-08-03T12:46:07.072Z,7.72
2018-08-03T12:48:36.253Z,7.20
2018-08-03T12:51:05.494Z,7.42
2018-08-03T12:53:34.625Z,7.17
2018-08-03T12:56:03.934Z,7.33
2018-08-03T12:58:32.905Z,7.55
2018-08-03T13:01:02.044Z,7.15
2018-08-03T13:03:31.021Z,7.60
2018-08-03T13:06:00.125Z,7.35
2018-08-03T13:08:29.206Z,7.22
2018-08-03T13:10:58.217Z,7.80
2018-08-03T13:13:27.375Z,6.92
2018-08-03T13:15:56.403Z,7.03
2018-08-03T13:18:25.550Z,7.20
2018-08-03T13:20:54.599Z,6.80
2018-08-03T13:23:23.661Z,7.47
2018-08-03T13:25:52.774Z,7.67
2018-08-03T13:28:21.900Z,7.12
2018-08-03T13:30:50.988Z,7.03
2018-08-03T13:33:20.033Z,7.08
2018-08-03T13:35:49.066Z,7.55
2018-08-03T13:38:18.122Z,7.62
2018-08-03T13:40:47.236Z,7.60
2018-08-03T13:43:16.483Z,6.87
2018-08-03T13:45:45.601Z,7.53
2018-08-03T13:48:14.809Z,7.35
2018-08-03T13:50:43.905Z,7.28
2018-08-03T13:53:12.998Z,6.70
2018-08-03T13:55:42.057Z,7.33
2018-08-03T13:58:11.104Z,6.47
2018-08-03T14:00:40.243Z,7.25
2018-08-03T14:03:09.275Z,7.03
2018-08-03T14:05:38.375Z,7.05
2018-08-03T14:08:07.438Z,7.42
2018-08-03T14:10:36.579Z,7.12
2018-08-03T14:13:05.744Z,6.72
2018-08-03T14:15:34.770Z,6.95
2018-08-03T14:18:03.933Z,6.72
2018-08-03T14:20:32.985Z,6.55
2018-08-03T14:23:01.956Z,6.05
2018-08-03T14:25:31.150Z,6.70
2018-08-03T14:28:00.616Z,6.47
2018-08-03T14:30:29.632Z,6.60
2018-08-03T14:32:58.737Z,6.17
2018-08-03T14:35:27.849Z,6.62
2018-08-03T14:37:56.894Z,6.85
2018-08-03T14:40:26.909Z,6.37
2018-08-03T14:42:56.101Z,6.53
2018-08-03T14:45:25.338Z,6.40
2018-08-03T14:47:54.449Z,6.30
2018-08-03T14:50:23.678Z,6.67
2018-08-03T14:52:52.816Z,6.42
2018-08-03T14:55:21.901Z,6.92
2018-08-03T14:57:51.039Z,6.30
2018-08-03T15:00:20.101Z,6.60
2018-08-03T15:02:49.341Z,7.00
2018-08-03T15:05:18.475Z,6.70
2018-08-03T15:07:47.742Z,6.50
2018-08-03T15:10:16.814Z,6.58
2018-08-03T15:12:45.978Z,6.60
2018-08-03T15:15:15.190Z,6.30
2018-08-03T15:17:44.273Z,6.53
2018-08-03T15:20:13.384Z,6.58
2018-08-03T15:22:42.517Z,6.28
2018-08-03T15:25:11.597Z,6.22
2018-08-03T15:27:40.651Z,6.35
2018-08-03T15:30:10.852Z,6.70
2018-08-03T15:32:39.999Z,6.50
2018-08-03T15:35:09.129Z,5.92
2018-08-03T15:37:38.195Z,5.65
2018-08-03T15:40:08.085Z,5.80
2018-08-03T15:42:37.206Z,6.10
2018-08-03T15:45:07.649Z,6.87
2018-08-03T15:47:36.694Z,7.28
2018-08-03T15:50:06.125Z,7.20
2018-08-03T15:52:35.153Z,6.42
2018-08-03T15:55:04.225Z,6.53
2018-08-03T15:57:33.273Z,6.40
2018-08-03T16:00:02.416Z,5.97
2018-08-03T16:02:31.475Z,5.53
2018-08-03T16:05:00.597Z,5.92
2018-08-03T16:07:29.733Z,5.92
2018-08-03T16:09:58.792Z,5.62
2018-08-03T16:12:27.833Z,6.10
2018-08-03T16:14:57.153Z,6.28
2018-08-03T16:17:26.271Z,6.22
2018-08-03T16:19:55.394Z,6.40
2018-08-03T16:22:24.436Z,6.65
2018-08-03T16:24:53.574Z,6.65
2018-08-03T16:27:22.627Z,6.00
2018-08-03T16:29:51.717Z,6.80
2018-08-03T16:32:20.818Z,6.40
2018-08-03T16:34:49.917Z,7.10
2018-08-03T16:37:19.073Z,7.20
2018-08-03T16:39:48.225Z,6.20
2018-08-03T16:42:17.359Z,6.70
2018-08-03T16:44:46.606Z,6.12
2018-08-03T16:47:15.692Z,5.75
2018-08-03T16:49:44.818Z,6.15
2018-08-03T16:52:13.890Z,6.67
2018-08-03T16:54:42.978Z,6.17
2018-08-03T16:57:12.050Z,6.05
2018-08-03T16:59:41.504Z,5.90
2018-08-03T17:02:10.652Z,5.65
2018-08-03T17:04:39.972Z,6.42
2018-08-03T17:07:09.116Z,5.97
2018-08-03T17:09:38.368Z,5.62
2018-08-03T17:12:07.417Z,5.53
2018-08-03T17:14:36.497Z,5.78
2018-08-03T17:17:05.613Z,6.15
2018-08-03T17:19:34.635Z,5.78
2018-08-03T17:22:03.877Z,6.20
2018-08-03T17:24:32.854Z,6.03
2018-08-03T17:27:01.948Z,6.00
2018-08-03T17:29:31.021Z,6.75
2018-08-03T17:32:00.166Z,6.28
2018-08-03T17:34:29.212Z,6.45
2018-08-03T17:36:58.391Z,6.60
2018-08-03T17:39:27.489Z,7.60
2018-08-03T17:41:56.705Z,7.10
2018-08-03T17:44:25.757Z,7.25
2018-08-03T17:46:54.833Z,6.50
2018-08-03T17:49:23.871Z,6.40
2018-08-03T17:51:52.869Z,6.72
2018-08-03T17:54:22.096Z,6.33
2018-08-03T17:56:51.162Z,9.98
2018-08-03T17:59:20.276Z,8.38
2018-08-03T18:01:49.264Z,6.62
2018-08-03T18:04:18.366Z,8.60
2018-08-03T18:06:47.518Z,6.80
2018-08-03T18:09:16.535Z,6.78
2018-08-03T18:11:45.537Z,6.65
2018-08-03T18:14:14.770Z,6.10
2018-08-03T18:16:43.819Z,6.08
2018-08-03T18:19:12.957Z,6.25
2018-08-03T18:21:42.013Z,6.33
2018-08-03T18:24:11.108Z,6.67
2018-08-03T18:26:40.820Z,6.22
2018-08-03T18:29:09.838Z,6.40
2018-08-03T18:31:38.987Z,6.50
2018-08-03T18:34:08.108Z,6.95
2018-08-03T18:36:38.223Z,6.92
2018-08-03T18:39:10.061Z,8.60
2018-08-03T18:41:39.348Z,9.88
2018-08-03T18:44:08.370Z,10.23
2018-08-03T18:46:37.448Z,11.20
2018-08-03T18:49:06.464Z,14.73
2018-08-03T18:51:35.496Z,13.10
2018-08-03T18:54:04.521Z,10.30
2018-08-03T18:56:33.685Z,7.75
2018-08-03T18:59:02.750Z,7.85
2018-08-03T19:01:31.883Z,7.42
2018-08-03T19:04:01.203Z,7.87
2018-08-03T19:06:30.232Z,7.83
2018-08-03T19:08:59.327Z,8.10
2018-08-03T19:11:28.591Z,8.10
2018-08-03T19:13:57.718Z,8.05
2018-08-03T19:16:26.853Z,7.17
2018-08-03T19:18:55.922Z,9.23
2018-08-03T19:21:25.039Z,8.23
2018-08-03T19:23:54.189Z,7.87
2018-08-03T19:26:23.305Z,8.40
2018-08-03T19:28:52.401Z,8.10
2018-08-03T19:31:21.569Z,7.72
2018-08-03T19:33:50.698Z,8.05
2018-08-03T19:36:19.786Z,8.30
2018-08-03T19:38:48.902Z,7.67
2018-08-03T19:41:17.913Z,7.70
2018-08-03T19:43:46.946Z,8.90
2018-08-03T19:46:16.070Z,8.15
2018-08-03T19:48:45.166Z,8.98
2018-08-03T19:51:14.381Z,15.40
2018-08-03T19:53:43.440Z,11.95
2018-08-03T19:56:12.617Z,38.10
2018-08-03T19:58:41.720Z,32.08
2018-08-03T20:01:10.721Z,64.20
2018-08-03T20:03:39.837Z,53.48
2018-08-03T20:06:09.028Z,35.70
2018-08-03T20:08:38.160Z,24.20
2018-08-03T20:11:07.214Z,21.45
2018-08-03T20:13:36.290Z,12.03
2018-08-03T20:16:05.420Z,10.15
2018-08-03T20:18:34.484Z,11.03
2018-08-03T20:21:03.628Z,11.20
2018-08-03T20:23:33.110Z,11.70
2018-08-03T20:26:02.321Z,10.18
2018-08-03T20:28:31.743Z,9.88
2018-08-03T20:31:00.955Z,9.00
2018-08-03T20:33:29.988Z,9.13
2018-08-03T20:35:59.106Z,8.70
2018-08-03T20:38:28.157Z,8.35
2018-08-03T20:40:57.301Z,8.48
2018-08-03T20:43:26.389Z,8.93
2018-08-03T20:45:55.501Z,8.95
2018-08-03T20:48:24.541Z,8.55
2018-08-03T20:50:53.748Z,8.78
2018-08-03T20:53:22.995Z,8.83
2018-08-03T20:55:52.025Z,8.90
2018-08-03T20:58:21.165Z,9.13
2018-08-03T21:00:50.317Z,9.30
2018-08-03T21:03:19.427Z,9.13
2018-08-03T21:05:49.662Z,9.00
2018-08-03T21:08:18.764Z,9.28
2018-08-03T21:10:47.766Z,8.88
2018-08-03T21:13:17.697Z,9.48
2018-08-03T21:15:46.978Z,9.23
2018-08-03T21:18:16.046Z,9.00
2018-08-03T21:20:45.181Z,9.50
2018-08-03T21:23:14.212Z,9.03
2018-08-03T21:25:43.370Z,9.25
2018-08-03T21:28:12.364Z,9.45
2018-08-03T21:30:41.466Z,9.60
2018-08-03T21:33:10.522Z,9.85
2018-08-03T21:35:39.583Z,10.28
2018-08-03T21:38:08.647Z,10.15
2018-08-03T21:40:37.701Z,10.40
2018-08-03T21:43:06.849Z,10.10
2018-08-03T21:45:36.024Z,10.48
2018-08-03T21:48:05.240Z,10.80
2018-08-03T21:50:34.296Z,9.98
2018-08-03T21:53:03.424Z,11.08
2018-08-03T21:55:32.484Z,11.50
2018-08-03T21:58:01.571Z,10.88
2018-08-03T22:00:30.632Z,11.18
2018-08-03T22:02:59.954Z,10.95
2018-08-03T22:05:30.156Z,11.10
2018-08-03T22:07:59.313Z,11.48
2018-08-03T22:10:28.436Z,11.43
2018-08-03T22:12:57.497Z,11.22
2018-08-03T22:15:26.756Z,12.07
2018-08-03T22:17:55.994Z,11.53
2018-08-03T22:20:25.064Z,11.93
2018-08-03T22:22:54.245Z,11.55
2018-08-03T22:25:23.298Z,12.15
2018-08-03T22:27:52.372Z,11.12
2018-08-03T22:30:21.453Z,12.07
2018-08-03T22:32:50.620Z,11.08
2018-08-03T22:35:19.765Z,11.85
2018-08-03T22:37:49.612Z,11.80
2018-08-03T22:40:19.037Z,11.73
2018-08-03T22:42:48.546Z,11.15
2018-08-03T22:45:17.596Z,11.80
2018-08-03T22:47:47.388Z,11.60
2018-08-03T22:50:16.701Z,12.55
2018-08-03T22:52:45.924Z,12.65
2018-08-03T22:55:14.975Z,12.15
2018-08-03T22:57:44.037Z,13.43
2018-08-03T23:00:13.268Z,12.20
2018-08-03T23:02:42.285Z,12.73
2018-08-03T23:05:11.433Z,12.78
2018-08-03T23:07:40.573Z,12.85
2018-08-03T23:10:09.680Z,13.10
2018-08-03T23:12:38.884Z,14.23
2018-08-03T23:15:08.473Z,13.43
2018-08-03T23:17:37.930Z,12.80
2018-08-03T23:20:07.412Z,12.93
2018-08-03T23:22:36.553Z,13.03
2018-08-03T23:25:05.593Z,13.75
2018-08-03T23:27:34.657Z,12.73
2018-08-03T23:30:03.875Z,14.98
2018-08-03T23:32:32.865Z,17.73
2018-08-03T23:35:01.933Z,17.10
2018-08-03T23:37:30.955Z,15.50
2018-08-03T23:40:00.023Z,16.23
2018-08-03T23:42:29.071Z,15.93
2018-08-03T23:44:58.120Z,15.18
2018-08-03T23:47:27.231Z,15.68
2018-08-03T23:49:56.197Z,15.23
2018-08-03T23:52:25.393Z,16.05
2018-08-03T23:54:54.577Z,15.78
2018-08-03T23:57:23.690Z,15.63
2018-08-03T23:59:52.746Z,15.68
